sensor_id;sensor_type;location;lat;lon;timestamp;P1;durP1;ratioP1;P2;durP2;ratioP2
10896;SDS011;5501;51.176;6.470;2023-10-19T00:03:33;8.25;;;5.25;;
10896;SDS011;5501;51.176;6.470;2023-10-19T00:08:35;8.70;;;5.75;;
10896;SDS011;5501;51.176;6.470;2023-10-19T00:13:42;9.18;;;5.72;;
10896;SDS011;5501;51.176;6.470;2023-10-19T00:18:45;8.52;;;5.70;;
10896;SDS011;5501;51.176;6.470;2023-10-19T00:23:59;8.57;;;5.75;;
10896;SDS011;5501;51.176;6.470;2023-10-19T00:29:05;11.27;;;6.03;;
10896;SDS011;5501;51.176;6.470;2023-10-19T00:34:28;9.15;;;6.13;;
10896;SDS011;5501;51.176;6.470;2023-10-19T00:39:30;7.90;;;5.57;;
10896;SDS011;5501;51.176;6.470;2023-10-19T00:44:44;8.02;;;5.70;;
10896;SDS011;5501;51.176;6.470;2023-10-19T00:49:50;9.10;;;6.00;;
10896;SDS011;5501;51.176;6.470;2023-10-19T00:54:52;6.07;;;5.35;;
10896;SDS011;5501;51.176;6.470;2023-10-19T01:00:00;9.30;;;6.13;;
10896;SDS011;5501;51.176;6.470;2023-10-19T01:05:29;10.40;;;6.18;;
10896;SDS011;5501;51.176;6.470;2023-10-19T01:15:41;8.25;;;5.30;;
10896;SDS011;5501;51.176;6.470;2023-10-19T01:20:43;12.68;;;5.80;;
10896;SDS011;5501;51.176;6.470;2023-10-19T01:26:08;8.65;;;5.70;;
10896;SDS011;5501;51.176;6.470;2023-10-19T01:31:16;7.57;;;5.05;;
10896;SDS011;5501;51.176;6.470;2023-10-19T01:36:32;7.07;;;5.03;;
10896;SDS011;5501;51.176;6.470;2023-10-19T01:41:43;7.50;;;4.72;;
10896;SDS011;5501;51.176;6.470;2023-10-19T01:46:45;8.73;;;5.13;;
10896;SDS011;5501;51.176;6.470;2023-10-19T01:51:47;7.70;;;5.40;;
10896;SDS011;5501;51.176;6.470;2023-10-19T01:56:52;6.43;;;4.95;;
10896;SDS011;5501;51.176;6.470;2023-10-19T02:06:59;9.48;;;5.45;;
10896;SDS011;5501;51.176;6.470;2023-10-19T02:12:02;8.35;;;5.47;;
10896;SDS011;5501;51.176;6.470;2023-10-19T02:17:06;7.28;;;5.32;;
10896;SDS011;5501;51.176;6.470;2023-10-19T02:22:08;5.70;;;4.47;;
10896;SDS011;5501;51.176;6.470;2023-10-19T02:27:10;5.70;;;4.25;;
10896;SDS011;5501;51.176;6.470;2023-10-19T02:32:27;3.88;;;2.95;;
10896;SDS011;5501;51.176;6.470;2023-10-19T02:37:29;5.22;;;2.90;;
10896;SDS011;5501;51.176;6.470;2023-10-19T02:42:31;5.45;;;2.70;;
10896;SDS011;5501;51.176;6.470;2023-10-19T02:47:33;4.07;;;2.30;;
10896;SDS011;5501;51.176;6.470;2023-10-19T02:52:36;4.05;;;3.05;;
10896;SDS011;5501;51.176;6.470;2023-10-19T02:57:37;7.68;;;3.22;;
10896;SDS011;5501;51.176;6.470;2023-10-19T03:02:39;4.30;;;3.15;;
10896;SDS011;5501;51.176;6.470;2023-10-19T03:07:42;5.60;;;3.80;;
10896;SDS011;5501;51.176;6.470;2023-10-19T03:12:46;7.18;;;4.47;;
10896;SDS011;5501;51.176;6.470;2023-10-19T03:17:48;6.60;;;3.70;;
10896;SDS011;5501;51.176;6.470;2023-10-19T03:22:50;5.40;;;4.03;;
10896;SDS011;5501;51.176;6.470;2023-10-19T03:27:53;4.90;;;3.78;;
10896;SDS011;5501;51.176;6.470;2023-10-19T03:32:56;4.22;;;3.65;;
10896;SDS011;5501;51.176;6.470;2023-10-19T03:38:00;5.82;;;3.83;;
10896;SDS011;5501;51.176;6.470;2023-10-19T03:43:09;6.53;;;3.38;;
10896;SDS011;5501;51.176;6.470;2023-10-19T03:48:18;7.10;;;3.75;;
10896;SDS011;5501;51.176;6.470;2023-10-19T03:53:37;5.88;;;3.78;;
10896;SDS011;5501;51.176;6.470;2023-10-19T03:58:39;4.57;;;3.58;;
10896;SDS011;5501;51.176;6.470;2023-10-19T04:03:44;4.68;;;3.25;;
10896;SDS011;5501;51.176;6.470;2023-10-19T04:08:45;5.03;;;3.75;;
10896;SDS011;5501;51.176;6.470;2023-10-19T04:13:52;6.03;;;4.28;;
10896;SDS011;5501;51.176;6.470;2023-10-19T04:18:54;9.02;;;6.15;;
10896;SDS011;5501;51.176;6.470;2023-10-19T04:23:56;13.65;;;6.57;;
10896;SDS011;5501;51.176;6.470;2023-10-19T04:28:58;12.52;;;6.63;;
10896;SDS011;5501;51.176;6.470;2023-10-19T04:33:59;10.38;;;6.45;;
10896;SDS011;5501;51.176;6.470;2023-10-19T04:39:11;12.20;;;7.00;;
10896;SDS011;5501;51.176;6.470;2023-10-19T04:44:15;9.10;;;5.70;;
10896;SDS011;5501;51.176;6.470;2023-10-19T04:49:16;14.48;;;6.25;;
10896;SDS011;5501;51.176;6.470;2023-10-19T04:54:18;12.23;;;5.70;;
10896;SDS011;5501;51.176;6.470;2023-10-19T04:59:19;10.52;;;5.90;;
10896;SDS011;5501;51.176;6.470;2023-10-19T05:04:21;7.68;;;5.63;;
10896;SDS011;5501;51.176;6.470;2023-10-19T05:09:23;9.57;;;5.93;;
10896;SDS011;5501;51.176;6.470;2023-10-19T05:14:24;14.40;;;5.75;;
10896;SDS011;5501;51.176;6.470;2023-10-19T05:19:26;9.10;;;5.38;;
10896;SDS011;5501;51.176;6.470;2023-10-19T05:24:28;9.60;;;5.65;;
10896;SDS011;5501;51.176;6.470;2023-10-19T05:29:33;8.32;;;4.97;;
10896;SDS011;5501;51.176;6.470;2023-10-19T05:34:35;8.32;;;4.75;;
10896;SDS011;5501;51.176;6.470;2023-10-19T05:39:37;6.68;;;4.63;;
10896;SDS011;5501;51.176;6.470;2023-10-19T05:44:39;6.32;;;4.50;;
10896;SDS011;5501;51.176;6.470;2023-10-19T05:49:41;7.95;;;4.43;;
10896;SDS011;5501;51.176;6.470;2023-10-19T05:54:42;7.63;;;4.47;;
10896;SDS011;5501;51.176;6.470;2023-10-19T05:59:44;4.05;;;3.28;;
10896;SDS011;5501;51.176;6.470;2023-10-19T06:04:45;5.07;;;3.03;;
10896;SDS011;5501;51.176;6.470;2023-10-19T06:09:47;6.95;;;4.05;;
10896;SDS011;5501;51.176;6.470;2023-10-19T06:14:48;9.50;;;4.43;;
10896;SDS011;5501;51.176;6.470;2023-10-19T06:19:50;7.13;;;3.75;;
10896;SDS011;5501;51.176;6.470;2023-10-19T06:24:51;5.45;;;3.67;;
10896;SDS011;5501;51.176;6.470;2023-10-19T06:29:53;5.35;;;3.55;;
10896;SDS011;5501;51.176;6.470;2023-10-19T06:34:54;4.97;;;3.80;;
10896;SDS011;5501;51.176;6.470;2023-10-19T06:39:56;7.07;;;4.35;;
10896;SDS011;5501;51.176;6.470;2023-10-19T06:44:57;12.75;;;5.03;;
10896;SDS011;5501;51.176;6.470;2023-10-19T06:49:59;8.02;;;4.28;;
10896;SDS011;5501;51.176;6.470;2023-10-19T06:55:01;6.47;;;4.75;;
10896;SDS011;5501;51.176;6.470;2023-10-19T07:00:05;7.00;;;3.72;;
10896;SDS011;5501;51.176;6.470;2023-10-19T07:05:15;7.85;;;4.35;;
10896;SDS011;5501;51.176;6.470;2023-10-19T07:10:22;5.03;;;3.25;;
10896;SDS011;5501;51.176;6.470;2023-10-19T07:15:24;5.70;;;4.28;;
10896;SDS011;5501;51.176;6.470;2023-10-19T07:20:31;7.85;;;3.90;;
10896;SDS011;5501;51.176;6.470;2023-10-19T07:25:40;9.45;;;4.13;;
10896;SDS011;5501;51.176;6.470;2023-10-19T07:30:45;8.70;;;3.92;;
10896;SDS011;5501;51.176;6.470;2023-10-19T07:35:52;10.18;;;4.40;;
10896;SDS011;5501;51.176;6.470;2023-10-19T07:40:56;7.38;;;3.92;;
10896;SDS011;5501;51.176;6.470;2023-10-19T07:45:58;8.25;;;4.60;;
10896;SDS011;5501;51.176;6.470;2023-10-19T07:50:59;8.70;;;4.63;;
10896;SDS011;5501;51.176;6.470;2023-10-19T07:56:01;7.28;;;4.63;;
10896;SDS011;5501;51.176;6.470;2023-10-19T08:01:02;5.72;;;4.18;;
10896;SDS011;5501;51.176;6.470;2023-10-19T08:06:04;4.63;;;3.53;;
10896;SDS011;5501;51.176;6.470;2023-10-19T08:11:08;3.70;;;3.00;;
10896;SDS011;5501;51.176;6.470;2023-10-19T08:16:09;3.60;;;2.47;;
10896;SDS011;5501;51.176;6.470;2023-10-19T08:21:13;4.30;;;2.50;;
10896;SDS011;5501;51.176;6.470;2023-10-19T08:26:15;5.45;;;2.55;;
10896;SDS011;5501;51.176;6.470;2023-10-19T08:31:16;2.45;;;2.00;;
10896;SDS011;5501;51.176;6.470;2023-10-19T08:36:18;4.65;;;2.53;;
10896;SDS011;5501;51.176;6.470;2023-10-19T08:41:23;6.32;;;2.22;;
10896;SDS011;5501;51.176;6.470;2023-10-19T08:46:24;3.10;;;2.00;;
10896;SDS011;5501;51.176;6.470;2023-10-19T08:51:26;7.65;;;2.25;;
10896;SDS011;5501;51.176;6.470;2023-10-19T08:56:28;2.00;;;1.70;;
10896;SDS011;5501;51.176;6.470;2023-10-19T09:01:30;2.95;;;1.63;;
10896;SDS011;5501;51.176;6.470;2023-10-19T09:06:35;5.63;;;1.42;;
10896;SDS011;5501;51.176;6.470;2023-10-19T09:11:43;4.20;;;2.17;;
10896;SDS011;5501;51.176;6.470;2023-10-19T09:16:54;3.28;;;1.45;;
10896;SDS011;5501;51.176;6.470;2023-10-19T09:21:57;2.72;;;1.33;;
10896;SDS011;5501;51.176;6.470;2023-10-19T09:27:01;1.42;;;1.00;;
10896;SDS011;5501;51.176;6.470;2023-10-19T09:32:03;2.80;;;1.27;;
10896;SDS011;5501;51.176;6.470;2023-10-19T09:37:07;6.63;;;1.52;;
10896;SDS011;5501;51.176;6.470;2023-10-19T09:42:10;3.38;;;1.00;;
10896;SDS011;5501;51.176;6.470;2023-10-19T09:47:13;2.85;;;1.05;;
10896;SDS011;5501;51.176;6.470;2023-10-19T09:52:19;1.55;;;0.90;;
10896;SDS011;5501;51.176;6.470;2023-10-19T09:57:32;3.42;;;1.42;;
10896;SDS011;5501;51.176;6.470;2023-10-19T10:02:42;1.88;;;1.00;;
10896;SDS011;5501;51.176;6.470;2023-10-19T10:12:49;3.80;;;1.13;;
10896;SDS011;5501;51.176;6.470;2023-10-19T10:17:51;3.30;;;1.02;;
10896;SDS011;5501;51.176;6.470;2023-10-19T10:28:17;6.10;;;1.58;;
10896;SDS011;5501;51.176;6.470;2023-10-19T10:33:37;7.22;;;1.77;;
10896;SDS011;5501;51.176;6.470;2023-10-19T10:38:39;3.30;;;1.38;;
10896;SDS011;5501;51.176;6.470;2023-10-19T10:43:48;3.60;;;1.20;;
10896;SDS011;5501;51.176;6.470;2023-10-19T10:48:52;3.25;;;1.38;;
10896;SDS011;5501;51.176;6.470;2023-10-19T10:53:54;5.15;;;2.17;;
10896;SDS011;5501;51.176;6.470;2023-10-19T10:58:56;4.75;;;1.38;;
10896;SDS011;5501;51.176;6.470;2023-10-19T11:04:08;6.50;;;2.03;;
10896;SDS011;5501;51.176;6.470;2023-10-19T11:09:12;5.05;;;1.50;;
10896;SDS011;5501;51.176;6.470;2023-10-19T11:14:13;5.15;;;1.40;;
10896;SDS011;5501;51.176;6.470;2023-10-19T11:19:15;6.10;;;1.83;;
10896;SDS011;5501;51.176;6.470;2023-10-19T11:24:24;3.70;;;1.75;;
10896;SDS011;5501;51.176;6.470;2023-10-19T11:29:27;3.03;;;1.75;;
10896;SDS011;5501;51.176;6.470;2023-10-19T11:34:28;4.60;;;1.80;;
10896;SDS011;5501;51.176;6.470;2023-10-19T11:39:32;6.32;;;1.67;;
10896;SDS011;5501;51.176;6.470;2023-10-19T11:44:33;9.35;;;1.85;;
10896;SDS011;5501;51.176;6.470;2023-10-19T11:49:35;7.00;;;1.98;;
10896;SDS011;5501;51.176;6.470;2023-10-19T11:54:37;2.42;;;1.30;;
10896;SDS011;5501;51.176;6.470;2023-10-19T11:59:40;5.20;;;1.80;;
10896;SDS011;5501;51.176;6.470;2023-10-19T12:04:42;6.03;;;1.80;;
10896;SDS011;5501;51.176;6.470;2023-10-19T12:09:44;2.95;;;1.38;;
10896;SDS011;5501;51.176;6.470;2023-10-19T12:14:46;6.85;;;1.95;;
10896;SDS011;5501;51.176;6.470;2023-10-19T12:19:47;5.43;;;1.30;;
10896;SDS011;5501;51.176;6.470;2023-10-19T12:24:49;5.07;;;1.60;;
10896;SDS011;5501;51.176;6.470;2023-10-19T12:29:52;6.05;;;1.50;;
10896;SDS011;5501;51.176;6.470;2023-10-19T12:34:54;1.50;;;1.25;;
10896;SDS011;5501;51.176;6.470;2023-10-19T12:39:59;7.13;;;1.95;;
10896;SDS011;5501;51.176;6.470;2023-10-19T12:45:01;8.20;;;1.67;;
10896;SDS011;5501;51.176;6.470;2023-10-19T12:50:04;3.05;;;1.20;;
10896;SDS011;5501;51.176;6.470;2023-10-19T12:55:08;2.58;;;1.40;;
10896;SDS011;5501;51.176;6.470;2023-10-19T13:00:10;3.75;;;1.60;;
10896;SDS011;5501;51.176;6.470;2023-10-19T13:05:36;4.72;;;1.65;;
10896;SDS011;5501;51.176;6.470;2023-10-19T13:10:40;9.50;;;1.83;;
10896;SDS011;5501;51.176;6.470;2023-10-19T13:15:45;7.45;;;1.85;;
10896;SDS011;5501;51.176;6.470;2023-10-19T13:20:49;5.00;;;1.42;;
10896;SDS011;5501;51.176;6.470;2023-10-19T13:25:51;8.88;;;2.50;;
10896;SDS011;5501;51.176;6.470;2023-10-19T13:30:58;4.07;;;1.48;;
10896;SDS011;5501;51.176;6.470;2023-10-19T13:36:00;9.43;;;2.03;;
10896;SDS011;5501;51.176;6.470;2023-10-19T13:41:03;5.03;;;1.90;;
10896;SDS011;5501;51.176;6.470;2023-10-19T13:46:10;9.13;;;1.53;;
10896;SDS011;5501;51.176;6.470;2023-10-19T13:51:15;7.28;;;1.70;;
10896;SDS011;5501;51.176;6.470;2023-10-19T13:56:17;5.45;;;1.60;;
10896;SDS011;5501;51.176;6.470;2023-10-19T14:01:19;4.55;;;1.67;;
10896;SDS011;5501;51.176;6.470;2023-10-19T14:06:25;3.75;;;1.80;;
10896;SDS011;5501;51.176;6.470;2023-10-19T14:11:28;6.30;;;1.65;;
10896;SDS011;5501;51.176;6.470;2023-10-19T14:16:30;3.08;;;1.52;;
10896;SDS011;5501;51.176;6.470;2023-10-19T14:21:32;4.38;;;1.67;;
10896;SDS011;5501;51.176;6.470;2023-10-19T14:26:38;4.72;;;1.67;;
10896;SDS011;5501;51.176;6.470;2023-10-19T14:31:41;5.45;;;1.85;;
10896;SDS011;5501;51.176;6.470;2023-10-19T14:36:43;3.78;;;1.80;;
10896;SDS011;5501;51.176;6.470;2023-10-19T14:41:44;1.65;;;1.20;;
10896;SDS011;5501;51.176;6.470;2023-10-19T14:46:46;3.55;;;1.73;;
10896;SDS011;5501;51.176;6.470;2023-10-19T14:51:48;6.28;;;2.17;;
10896;SDS011;5501;51.176;6.470;2023-10-19T14:56:49;5.57;;;2.55;;
10896;SDS011;5501;51.176;6.470;2023-10-19T15:01:51;3.08;;;1.58;;
10896;SDS011;5501;51.176;6.470;2023-10-19T15:06:53;7.20;;;2.97;;
10896;SDS011;5501;51.176;6.470;2023-10-19T15:11:55;3.97;;;2.10;;
10896;SDS011;5501;51.176;6.470;2023-10-19T15:16:56;1.50;;;1.40;;
10896;SDS011;5501;51.176;6.470;2023-10-19T15:22:00;5.28;;;2.03;;
10896;SDS011;5501;51.176;6.470;2023-10-19T15:27:01;5.43;;;1.63;;
10896;SDS011;5501;51.176;6.470;2023-10-19T15:32:03;7.60;;;2.17;;
10896;SDS011;5501;51.176;6.470;2023-10-19T15:37:05;5.55;;;1.73;;
10896;SDS011;5501;51.176;6.470;2023-10-19T15:42:07;3.63;;;1.70;;
10896;SDS011;5501;51.176;6.470;2023-10-19T15:47:09;4.63;;;2.13;;
10896;SDS011;5501;51.176;6.470;2023-10-19T15:52:14;6.22;;;2.40;;
10896;SDS011;5501;51.176;6.470;2023-10-19T15:57:19;4.85;;;2.03;;
10896;SDS011;5501;51.176;6.470;2023-10-19T16:02:21;7.78;;;2.58;;
10896;SDS011;5501;51.176;6.470;2023-10-19T16:07:22;2.13;;;1.90;;
10896;SDS011;5501;51.176;6.470;2023-10-19T16:12:24;4.13;;;1.95;;
10896;SDS011;5501;51.176;6.470;2023-10-19T16:17:26;3.58;;;1.90;;
10896;SDS011;5501;51.176;6.470;2023-10-19T16:22:28;3.88;;;2.20;;
10896;SDS011;5501;51.176;6.470;2023-10-19T16:27:29;4.60;;;2.60;;
10896;SDS011;5501;51.176;6.470;2023-10-19T16:32:32;8.75;;;3.00;;
10896;SDS011;5501;51.176;6.470;2023-10-19T16:37:37;4.90;;;2.50;;
10896;SDS011;5501;51.176;6.470;2023-10-19T16:42:39;4.70;;;2.55;;
10896;SDS011;5501;51.176;6.470;2023-10-19T16:47:41;6.45;;;2.45;;
10896;SDS011;5501;51.176;6.470;2023-10-19T16:52:44;4.68;;;3.33;;
10896;SDS011;5501;51.176;6.470;2023-10-19T16:57:46;7.35;;;2.70;;
10896;SDS011;5501;51.176;6.470;2023-10-19T17:02:48;7.65;;;2.85;;
10896;SDS011;5501;51.176;6.470;2023-10-19T17:07:49;4.57;;;2.65;;
10896;SDS011;5501;51.176;6.470;2023-10-19T17:12:51;3.75;;;2.47;;
10896;SDS011;5501;51.176;6.470;2023-10-19T17:17:53;5.00;;;2.88;;
10896;SDS011;5501;51.176;6.470;2023-10-19T17:22:55;4.50;;;2.78;;
10896;SDS011;5501;51.176;6.470;2023-10-19T17:27:57;6.80;;;3.47;;
10896;SDS011;5501;51.176;6.470;2023-10-19T17:32:59;6.80;;;3.55;;
10896;SDS011;5501;51.176;6.470;2023-10-19T17:38:12;5.80;;;3.88;;
10896;SDS011;5501;51.176;6.470;2023-10-19T17:43:14;5.75;;;3.90;;
10896;SDS011;5501;51.176;6.470;2023-10-19T17:48:15;5.53;;;3.90;;
10896;SDS011;5501;51.176;6.470;2023-10-19T17:53:18;5.95;;;4.13;;
10896;SDS011;5501;51.176;6.470;2023-10-19T17:58:20;8.55;;;5.15;;
10896;SDS011;5501;51.176;6.470;2023-10-19T18:03:21;4.88;;;4.20;;
10896;SDS011;5501;51.176;6.470;2023-10-19T18:08:26;6.43;;;4.30;;
10896;SDS011;5501;51.176;6.470;2023-10-19T18:13:29;8.23;;;4.30;;
10896;SDS011;5501;51.176;6.470;2023-10-19T18:18:32;10.52;;;4.82;;
10896;SDS011;5501;51.176;6.470;2023-10-19T18:23:34;7.65;;;4.93;;
10896;SDS011;5501;51.176;6.470;2023-10-19T18:28:36;5.93;;;4.80;;
10896;SDS011;5501;51.176;6.470;2023-10-19T18:33:43;6.80;;;5.13;;
10896;SDS011;5501;51.176;6.470;2023-10-19T18:38:44;8.90;;;5.03;;
10896;SDS011;5501;51.176;6.470;2023-10-19T18:43:47;7.55;;;4.80;;
10896;SDS011;5501;51.176;6.470;2023-10-19T18:48:48;5.97;;;4.82;;
10896;SDS011;5501;51.176;6.470;2023-10-19T18:53:50;7.07;;;4.70;;
10896;SDS011;5501;51.176;6.470;2023-10-19T18:58:51;5.95;;;4.57;;
10896;SDS011;5501;51.176;6.470;2023-10-19T19:03:53;8.75;;;5.25;;
10896;SDS011;5501;51.176;6.470;2023-10-19T19:08:56;7.20;;;5.20;;
10896;SDS011;5501;51.176;6.470;2023-10-19T19:13:57;6.53;;;5.07;;
10896;SDS011;5501;51.176;6.470;2023-10-19T19:18:59;10.02;;;5.05;;
10896;SDS011;5501;51.176;6.470;2023-10-19T19:24:00;9.93;;;5.97;;
10896;SDS011;5501;51.176;6.470;2023-10-19T19:29:02;7.05;;;5.18;;
10896;SDS011;5501;51.176;6.470;2023-10-19T19:34:06;10.77;;;5.03;;
10896;SDS011;5501;51.176;6.470;2023-10-19T19:39:07;7.22;;;5.60;;
10896;SDS011;5501;51.176;6.470;2023-10-19T19:44:10;6.90;;;5.97;;
10896;SDS011;5501;51.176;6.470;2023-10-19T19:49:11;7.35;;;4.80;;
10896;SDS011;5501;51.176;6.470;2023-10-19T19:54:15;10.98;;;5.22;;
10896;SDS011;5501;51.176;6.470;2023-10-19T19:59:17;9.38;;;5.03;;
10896;SDS011;5501;51.176;6.470;2023-10-19T20:04:18;8.23;;;5.53;;
10896;SDS011;5501;51.176;6.470;2023-10-19T20:09:20;5.85;;;4.90;;
10896;SDS011;5501;51.176;6.470;2023-10-19T20:14:23;8.15;;;5.18;;
10896;SDS011;5501;51.176;6.470;2023-10-19T20:19:25;6.10;;;5.05;;
10896;SDS011;5501;51.176;6.470;2023-10-19T20:24:27;8.52;;;4.97;;
10896;SDS011;5501;51.176;6.470;2023-10-19T20:29:28;7.40;;;4.60;;
10896;SDS011;5501;51.176;6.470;2023-10-19T20:34:30;6.25;;;4.85;;
10896;SDS011;5501;51.176;6.470;2023-10-19T20:39:34;6.22;;;5.03;;
10896;SDS011;5501;51.176;6.470;2023-10-19T20:44:38;6.55;;;5.07;;
10896;SDS011;5501;51.176;6.470;2023-10-19T20:49:43;7.85;;;5.82;;
10896;SDS011;5501;51.176;6.470;2023-10-19T20:54:46;7.00;;;5.32;;
10896;SDS011;5501;51.176;6.470;2023-10-19T20:59:47;7.38;;;5.78;;
10896;SDS011;5501;51.176;6.470;2023-10-19T21:04:49;6.53;;;5.47;;
10896;SDS011;5501;51.176;6.470;2023-10-19T21:09:54;7.18;;;5.45;;
10896;SDS011;5501;51.176;6.470;2023-10-19T21:14:56;5.80;;;5.00;;
10896;SDS011;5501;51.176;6.470;2023-10-19T21:19:57;8.57;;;5.60;;
10896;SDS011;5501;51.176;6.470;2023-10-19T21:24:59;7.68;;;5.05;;
10896;SDS011;5501;51.176;6.470;2023-10-19T21:30:00;6.90;;;5.10;;
10896;SDS011;5501;51.176;6.470;2023-10-19T21:35:02;7.95;;;4.82;;
10896;SDS011;5501;51.176;6.470;2023-10-19T21:40:04;9.75;;;5.63;;
10896;SDS011;5501;51.176;6.470;2023-10-19T21:45:07;8.57;;;6.47;;
10896;SDS011;5501;51.176;6.470;2023-10-19T21:50:09;7.65;;;6.03;;
10896;SDS011;5501;51.176;6.470;2023-10-19T21:55:12;8.40;;;5.55;;
10896;SDS011;5501;51.176;6.470;2023-10-19T22:00:14;11.05;;;6.30;;
10896;SDS011;5501;51.176;6.470;2023-10-19T22:05:28;7.88;;;6.07;;
10896;SDS011;5501;51.176;6.470;2023-10-19T22:10:31;12.02;;;6.30;;
10896;SDS011;5501;51.176;6.470;2023-10-19T22:15:34;8.77;;;5.88;;
10896;SDS011;5501;51.176;6.470;2023-10-19T22:20:35;9.30;;;6.82;;
10896;SDS011;5501;51.176;6.470;2023-10-19T22:25:37;8.50;;;6.85;;
10896;SDS011;5501;51.176;6.470;2023-10-19T22:30:39;9.75;;;6.97;;
10896;SDS011;5501;51.176;6.470;2023-10-19T22:35:41;11.13;;;6.93;;
10896;SDS011;5501;51.176;6.470;2023-10-19T22:40:43;10.07;;;6.68;;
10896;SDS011;5501;51.176;6.470;2023-10-19T22:45:44;9.68;;;6.60;;
10896;SDS011;5501;51.176;6.470;2023-10-19T22:50:47;8.65;;;6.70;;
10896;SDS011;5501;51.176;6.470;2023-10-19T22:55:48;12.30;;;6.90;;
10896;SDS011;5501;51.176;6.470;2023-10-19T23:00:50;9.68;;;6.97;;
10896;SDS011;5501;51.176;6.470;2023-10-19T23:05:51;8.30;;;6.10;;
10896;SDS011;5501;51.176;6.470;2023-10-19T23:10:55;9.88;;;6.43;;
10896;SDS011;5501;51.176;6.470;2023-10-19T23:15:57;8.98;;;6.55;;
10896;SDS011;5501;51.176;6.470;2023-10-19T23:21:04;8.30;;;5.95;;
10896;SDS011;5501;51.176;6.470;2023-10-19T23:26:08;9.40;;;6.40;;
10896;SDS011;5501;51.176;6.470;2023-10-19T23:31:09;8.57;;;5.60;;
10896;SDS011;5501;51.176;6.470;2023-10-19T23:36:12;11.48;;;6.28;;
10896;SDS011;5501;51.176;6.470;2023-10-19T23:41:14;10.68;;;6.55;;
10896;SDS011;5501;51.176;6.470;2023-10-19T23:46:16;7.20;;;5.22;;
10896;SDS011;5501;51.176;6.470;2023-10-19T23:51:20;8.70;;;5.93;;
10896;SDS011;5501;51.176;6.470;2023-10-19T23:56:21;7.65;;;5.93;;
